Time;durP1;ratioP1;P1;durP2;ratioP2;P2;SDS_P1;SDS_P2;PMS_P1;PMS_P2;Temp;Humidity;BMP_temperature;BMP_pressure;BME280_temperature;BME280_humidity;BME280_pressure;Samples;Min_cycle;Max_cycle;Signal;HPM_P1;HPM_P2
2021/01/27 00:01:53;;;;;;;5.85;3.20;;;;;;;-0.83;71.81;95963.41;4960611;28;20050;-47
2021/01/27 00:04:20;;;;;;;4.45;2.75;;;;;;;-0.66;71.22;95960.53;4974434;28;20046;-50
2021/01/27 00:06:47;;;;;;;6.53;2.90;;;;;;;-0.71;70.93;95964.78;4967830;28;20118;-49
2021/01/27 00:09:13;;;;;;;9.82;2.55;;;;;;;-0.80;71.37;95963.69;4955108;28;20082;-46
2021/01/27 00:11:40;;;;;;;5.72;2.72;;;;;;;-0.65;71.01;95956.81;4955245;28;20086;-49
2021/01/27 00:14:06;;;;;;;5.00;2.97;;;;;;;-0.76;71.48;95970.06;4960733;28;20051;-50
2021/01/27 00:16:33;;;;;;;5.22;2.38;;;;;;;-0.61;70.69;95961.38;4968223;28;20424;-48
2021/01/27 00:19:02;;;;;;;6.05;2.83;;;;;;;-0.89;71.72;95965.22;4955120;28;20126;-51
2021/01/27 00:21:28;;;;;;;5.35;2.83;;;;;;;-0.73;71.08;95968.75;4955231;28;20089;-48
2021/01/27 00:23:55;;;;;;;7.00;2.70;;;;;;;-0.84;71.38;95959.94;4976663;28;20486;-49
2021/01/27 00:26:21;;;;;;;5.85;2.95;;;;;;;-0.60;70.77;95954.97;4973693;28;20133;-47
2021/01/27 00:28:48;;;;;;;7.38;2.75;;;;;;;-0.80;71.63;95963.69;4963370;28;20145;-46
2021/01/27 00:31:14;;;;;;;5.32;2.72;;;;;;;-0.89;71.10;95961.78;4970652;28;20085;-50
2021/01/27 00:33:41;;;;;;;5.32;3.22;;;;;;;-0.62;70.40;95953.63;4973290;28;20181;-46
2021/01/27 00:36:07;;;;;;;5.43;2.95;;;;;;;-0.61;70.58;95949.94;4973325;28;20062;-48
2021/01/27 00:38:34;;;;;;;4.05;2.45;;;;;;;-0.65;69.87;95939.03;4989313;23;20046;-50
2021/01/27 00:41:01;;;;;;;5.90;2.90;;;;;;;-0.80;70.56;95937.13;4973200;28;20512;-50
2021/01/27 00:43:27;;;;;;;4.60;2.70;;;;;;;-0.86;70.96;95938.16;4972587;28;20113;-54
2021/01/27 00:45:54;;;;;;;6.40;3.00;;;;;;;-0.87;70.57;95930.44;4972381;28;20405;-53
2021/01/27 00:48:21;;;;;;;7.45;2.88;;;;;;;-0.60;70.53;95925.75;4979943;28;20118;-52
2021/01/27 00:50:48;;;;;;;7.10;3.05;;;;;;;-0.64;70.77;95929.22;4968606;28;20054;-50
2021/01/27 00:53:15;;;;;;;5.15;2.58;;;;;;;-0.68;69.87;95930.75;4971469;28;20129;-52
2021/01/27 00:55:45;;;;;;;5.82;2.50;;;;;;;-0.69;69.52;95932.63;4972012;28;20134;-43
2021/01/27 00:58:14;;;;;;;6.45;2.80;;;;;;;-0.79;70.59;95929.94;4957377;28;20047;-45
2021/01/27 01:00:44;;;;;;;7.10;3.20;;;;;;;-0.58;69.82;95936.94;4969034;28;20147;-50
2021/01/27 01:03:19;;;;;;;4.43;2.70;;;;;;;-0.67;69.87;95929.72;4971736;28;20043;-45
2021/01/27 01:05:46;;;;;;;4.97;2.70;;;;;;;-0.91;69.82;95930.16;4961520;28;20462;-50
2021/01/27 01:08:15;;;;;;;4.22;2.83;;;;;;;-0.81;70.74;95924.91;4958128;28;20098;-51
2021/01/27 01:10:46;;;;;;;4.53;2.30;;;;;;;-0.84;69.88;95920.09;4973276;28;20065;-51
2021/01/27 01:13:17;;;;;;;6.85;2.53;;;;;;;-0.87;70.18;95917.16;4972039;28;20054;-49
2021/01/27 01:15:44;;;;;;;6.18;2.63;;;;;;;-1.07;70.35;95925.81;4954252;28;20062;-51
2021/01/27 01:18:13;;;;;;;6.57;2.70;;;;;;;-0.77;69.68;95918.00;4953320;28;20109;-52
2021/01/27 01:20:40;;;;;;;7.32;3.83;;;;;;;-1.00;70.18;95921.09;4966748;28;20146;-48
2021/01/27 01:23:07;;;;;;;6.18;2.70;;;;;;;-1.08;70.67;95921.56;4973272;28;20130;-50
2021/01/27 01:25:35;;;;;;;5.25;2.65;;;;;;;-0.96;70.45;95933.59;4972503;28;20078;-49
2021/01/27 01:28:04;;;;;;;6.95;2.80;;;;;;;-0.75;70.14;95918.53;4967649;28;20128;-46
2021/01/27 01:30:36;;;;;;;4.25;2.55;;;;;;;-0.79;70.08;95928.06;4973268;28;20126;-43
2021/01/27 01:33:06;;;;;;;4.93;2.90;;;;;;;-0.82;70.25;95922.47;4973483;28;20055;-45
2021/01/27 01:35:33;;;;;;;4.72;2.95;;;;;;;-1.40;71.01;95874.69;4967893;28;20509;-50
2021/01/27 01:38:01;;;;;;;5.60;2.92;;;;;;;-0.98;70.56;95909.13;4957150;28;20124;-44
2021/01/27 01:40:30;;;;;;;5.82;2.70;;;;;;;-1.15;71.38;95907.75;4973340;28;20051;-51
2021/01/27 01:43:25;;;;;;;3.53;2.30;;;;;;;-1.04;71.12;95909.38;4972340;28;20109;-43
2021/01/27 01:45:53;;;;;;;4.68;2.72;;;;;;;-0.81;70.03;95905.50;4964255;28;20051;-54
2021/01/27 01:48:34;;;;;;;5.20;2.75;;;;;;;-0.63;69.96;95891.72;4972132;28;20741;-51
2021/01/27 01:51:06;;;;;;;5.18;2.40;;;;;;;-0.90;70.09;95883.16;4956372;28;20063;-52
2021/01/27 01:53:32;;;;;;;5.65;3.00;;;;;;;-0.98;70.46;95876.47;4952931;28;20497;-48
2021/01/27 01:56:02;;;;;;;7.68;2.90;;;;;;;-0.65;70.54;95866.47;4956307;28;20085;-55
2021/01/27 01:58:28;;;;;;;7.40;3.20;;;;;;;-0.35;68.89;95873.72;4955530;28;20138;-49
2021/01/27 02:00:59;;;;;;;5.45;3.30;;;;;;;-0.65;69.39;95864.66;4955403;28;20497;-51
2021/01/27 02:03:32;;;;;;;5.10;2.50;;;;;;;-1.03;70.62;95865.84;4972242;28;20051;-52
2021/01/27 02:06:12;;;;;;;6.50;2.55;;;;;;;-0.76;70.36;95869.09;4967206;28;20130;-51
2021/01/27 02:08:44;;;;;;;5.15;2.70;;;;;;;-0.51;69.54;95871.03;4952747;28;20043;-51
2021/01/27 02:11:20;;;;;;;5.75;2.60;;;;;;;-0.90;70.58;95868.00;4972405;28;20071;-53
2021/01/27 02:13:57;;;;;;;5.55;2.53;;;;;;;-0.84;70.55;95866.97;4971453;28;20054;-49
2021/01/27 02:16:33;;;;;;;6.80;2.63;;;;;;;-0.93;70.90;95865.88;4953280;28;20054;-46
2021/01/27 02:19:03;;;;;;;5.25;2.50;;;;;;;-0.85;71.17;95859.25;4966052;28;20043;-46
2021/01/27 02:21:59;;;;;;;6.63;3.10;;;;;;;-0.62;70.57;95863.28;4953587;28;20058;-50
2021/01/27 02:24:28;;;;;;;7.28;2.70;;;;;;;-0.72;69.89;95859.56;4972364;28;20468;-43
2021/01/27 02:27:10;;;;;;;7.00;3.22;;;;;;;-0.69;70.43;95857.44;4970511;28;20085;-50
2021/01/27 02:30:11;;;;;;;6.47;2.60;;;;;;;-0.79;70.38;95853.69;4971581;28;20051;-45
2021/01/27 02:32:54;;;;;;;3.92;2.35;;;;;;;-0.90;70.23;95857.41;4971978;28;20055;-53
2021/01/27 02:36:11;;;;;;;4.55;2.55;;;;;;;-0.96;70.57;95859.22;4964351;28;20063;-47
2021/01/27 02:38:50;;;;;;;7.03;4.00;;;;;;;-0.53;70.07;95846.56;4961930;28;20084;-48
2021/01/27 02:41:26;;;;;;;7.10;2.70;;;;;;;-0.69;69.56;95865.41;4970054;28;20058;-46
2021/01/27 02:43:56;;;;;;;4.53;2.72;;;;;;;-0.67;69.81;95842.84;4957491;28;20051;-46
2021/01/27 02:46:32;;;;;;;4.32;2.60;;;;;;;-0.82;69.95;95851.56;4963275;28;20566;-46
2021/01/27 02:49:25;;;;;;;5.45;2.50;;;;;;;-1.00;69.82;95852.06;4970207;28;20113;-45
2021/01/27 02:51:59;;;;;;;6.65;2.80;;;;;;;-0.91;70.27;95847.84;4951812;29;20051;-50
2021/01/27 02:54:41;;;;;;;4.30;2.50;;;;;;;-1.10;70.29;95846.72;4953153;28;20576;-47
2021/01/27 02:57:16;;;;;;;6.03;2.97;;;;;;;-0.77;70.06;95840.16;4953429;28;20059;-45
2021/01/27 02:59:45;;;;;;;5.93;2.97;;;;;;;-0.43;68.31;95837.03;4955767;28;20058;-44
2021/01/27 03:02:18;;;;;;;5.07;2.60;;;;;;;-0.88;70.02;95836.66;4954164;28;20047;-44
2021/01/27 03:05:07;;;;;;;7.85;2.70;;;;;;;-1.06;70.11;95832.63;4975299;28;20050;-43
2021/01/27 03:07:38;;;;;;;5.22;3.00;;;;;;;-0.90;69.43;95835.34;4964857;28;20054;-50
2021/01/27 03:10:11;;;;;;;6.88;2.85;;;;;;;-1.27;70.42;95841.56;4975858;28;20058;-45
2021/01/27 03:12:37;;;;;;;4.60;2.65;;;;;;;-1.05;69.96;95842.19;4965953;28;20078;-44
2021/01/27 03:15:07;;;;;;;6.78;2.42;;;;;;;-1.28;70.40;95843.44;4966414;28;20101;-43
2021/01/27 03:17:34;;;;;;;5.82;2.45;;;;;;;-1.44;70.50;95836.47;4973913;28;20133;-51
2021/01/27 03:20:07;;;;;;;4.47;2.30;;;;;;;-1.47;70.87;95840.41;4966921;28;20054;-50
2021/01/27 03:22:40;;;;;;;5.82;2.45;;;;;;;-1.42;70.12;95829.06;4964542;28;20133;-48
2021/01/27 03:25:16;;;;;;;4.90;2.40;;;;;;;-1.10;69.73;95822.81;4974691;28;20058;-43
2021/01/27 03:27:55;;;;;;;5.40;2.50;;;;;;;-1.11;69.11;95826.50;4974525;28;20082;-45
2021/01/27 03:30:22;;;;;;;4.53;2.60;;;;;;;-1.13;69.23;95831.28;4963902;28;20047;-44
2021/01/27 03:33:02;;;;;;;4.07;2.45;;;;;;;-1.53;69.98;95840.66;4956368;28;20059;-44
2021/01/27 03:35:37;;;;;;;4.82;2.70;;;;;;;-1.63;70.64;95827.34;4963800;28;20055;-43
2021/01/27 03:38:30;;;;;;;5.50;2.28;;;;;;;-1.55;70.94;95819.69;4974617;28;20245;-46
2021/01/27 03:41:38;;;;;;;4.80;2.70;;;;;;;-1.54;69.83;95815.19;4967746;28;20059;-43
2021/01/27 03:44:21;;;;;;;7.32;2.50;;;;;;;-1.56;70.07;95817.28;4973199;28;20098;-43
2021/01/27 03:47:08;;;;;;;6.50;2.30;;;;;;;-1.55;69.76;95821.56;4968436;28;20164;-49
2021/01/27 03:49:49;;;;;;;4.95;2.92;;;;;;;-1.37;69.09;95826.41;4960497;28;20047;-44
2021/01/27 03:52:34;;;;;;;4.90;2.42;;;;;;;-1.80;69.88;95823.00;4975093;28;20070;-44
2021/01/27 03:55:09;;;;;;;6.43;2.40;;;;;;;-1.93;70.11;95808.34;4974670;28;20065;-49
2021/01/27 03:57:40;;;;;;;4.47;2.42;;;;;;;-1.70;69.07;95809.00;4972184;28;20054;-44
2021/01/27 04:00:08;;;;;;;7.07;2.60;;;;;;;-1.58;70.09;95827.38;4955605;28;20049;-43
2021/01/27 04:02:38;;;;;;;13.77;4.30;;;;;;;-1.50;68.66;95822.38;4955415;28;20058;-54
2021/01/27 04:05:06;;;;;;;5.72;2.35;;;;;;;-1.82;69.21;95814.53;4954278;29;20047;-44
2021/01/27 04:07:33;;;;;;;5.25;2.45;;;;;;;-1.58;68.58;95827.38;4957507;28;20047;-53
2021/01/27 04:09:59;;;;;;;4.35;2.55;;;;;;;-1.92;69.72;95819.75;4974606;28;20050;-45
2021/01/27 04:12:26;;;;;;;4.22;2.35;;;;;;;-1.88;69.06;95804.94;4957428;28;20058;-43
2021/01/27 04:14:52;;;;;;;6.13;2.78;;;;;;;-1.69;68.97;95808.75;4962435;28;20130;-43
2021/01/27 04:17:28;;;;;;;4.63;2.55;;;;;;;-1.80;69.99;95801.00;4972329;28;20051;-51
2021/01/27 04:19:56;;;;;;;6.05;2.75;;;;;;;-1.67;69.30;95803.19;4967994;28;20051;-46
2021/01/27 04:22:23;;;;;;;5.75;2.60;;;;;;;-1.39;67.85;95806.50;4955159;28;20047;-43
2021/01/27 04:24:50;;;;;;;4.15;2.40;;;;;;;-1.42;67.67;95800.66;4955152;28;20066;-53
2021/01/27 04:27:16;;;;;;;4.30;2.13;;;;;;;-1.40;67.68;95797.72;4955716;28;20079;-45
2021/01/27 04:29:43;;;;;;;4.20;2.45;;;;;;;-1.19;66.14;95812.69;4968546;28;20047;-45
2021/01/27 04:32:10;;;;;;;4.50;2.50;;;;;;;-1.72;68.52;95803.97;4972990;28;20051;-46
2021/01/27 04:34:36;;;;;;;4.57;2.55;;;;;;;-1.44;67.43;95805.41;4974121;28;20054;-46
2021/01/27 04:37:03;;;;;;;4.93;2.42;;;;;;;-1.38;66.73;95808.09;4968946;28;20117;-45
2021/01/27 04:39:30;;;;;;;4.30;2.08;;;;;;;-1.98;69.08;95799.53;4973802;28;20105;-49
2021/01/27 04:41:57;;;;;;;4.40;2.47;;;;;;;-1.88;68.91;95799.63;4956676;28;20042;-45
2021/01/27 04:44:24;;;;;;;5.00;2.35;;;;;;;-1.53;67.80;95796.34;4973052;28;20051;-44
2021/01/27 04:46:54;;;;;;;4.47;2.55;;;;;;;-1.88;69.11;95799.63;4972356;28;20415;-51
2021/01/27 04:49:26;;;;;;;3.90;2.25;;;;;;;-2.12;69.97;95789.38;4970383;28;20047;-48
2021/01/27 04:52:12;;;;;;;6.27;2.47;;;;;;;-1.83;69.24;95797.00;4957730;28;20050;-52
2021/01/27 04:55:06;;;;;;;4.85;2.30;;;;;;;-1.66;68.04;95794.16;4973057;28;20054;-51
2021/01/27 04:57:47;;;;;;;7.68;2.80;;;;;;;-1.67;68.25;95792.56;4970471;28;20065;-50
2021/01/27 05:00:22;;;;;;;4.15;2.22;;;;;;;-1.65;67.87;95783.31;4959692;28;20051;-50
2021/01/27 05:02:58;;;;;;;5.45;2.13;;;;;;;-1.66;68.42;95786.19;4972312;28;20085;-48
2021/01/27 05:05:34;;;;;;;3.15;1.90;;;;;;;-1.59;67.48;95770.88;4972903;28;20137;-49
2021/01/27 05:08:11;;;;;;;5.13;2.20;;;;;;;-1.94;69.02;95780.25;4960180;28;20062;-51
2021/01/27 05:10:51;;;;;;;4.25;2.00;;;;;;;-1.75;67.61;95774.50;4961543;28;20070;-49
2021/01/27 05:13:45;;;;;;;6.22;2.17;;;;;;;-1.74;68.12;95766.28;4972449;28;20047;-46
2021/01/27 05:16:16;;;;;;;3.72;1.90;;;;;;;-1.72;68.18;95766.03;4970242;28;20059;-49
2021/01/27 05:18:44;;;;;;;3.42;2.00;;;;;;;-1.63;68.47;95767.13;4953526;28;20067;-45
2021/01/27 05:21:25;;;;;;;5.00;2.10;;;;;;;-1.54;67.29;95762.13;4970893;28;20497;-44
2021/01/27 05:23:54;;;;;;;5.25;2.30;;;;;;;-1.35;66.46;95765.13;4973048;28;20055;-48
2021/01/27 05:26:24;;;;;;;18.23;3.05;;;;;;;-1.38;66.59;95763.78;4972190;28;20054;-46
2021/01/27 05:29:16;;;;;;;7.28;2.30;;;;;;;-1.71;67.84;95768.41;4970402;28;20508;-47
2021/01/27 05:31:55;;;;;;;10.07;2.47;;;;;;;-2.17;69.45;95764.72;4973082;28;20117;-51
2021/01/27 05:34:41;;;;;;;4.97;2.20;;;;;;;-2.05;69.81;95754.72;4972508;28;20055;-51
2021/01/27 05:37:14;;;;;;;5.70;2.00;;;;;;;-2.11;69.37;95747.81;4958651;28;20066;-46
2021/01/27 05:39:41;;;;;;;3.55;1.52;;;;;;;-2.17;68.99;95744.31;4956139;28;20081;-51
2021/01/27 05:42:30;;;;;;;3.50;1.77;;;;;;;-2.22;68.98;95740.81;4972846;28;20142;-52
2021/01/27 05:45:37;;;;;;;5.35;2.45;;;;;;;-2.07;69.30;95743.56;4954643;28;20113;-46
2021/01/27 05:48:28;;;;;;;4.13;2.03;;;;;;;-1.99;69.16;95737.78;4971874;28;20061;-46
2021/01/27 05:51:01;;;;;;;5.40;2.05;;;;;;;-2.02;69.17;95730.34;4957055;28;20055;-56
2021/01/27 05:53:31;;;;;;;5.57;1.90;;;;;;;-1.97;68.94;95726.94;4953645;28;20086;-53
2021/01/27 05:56:00;;;;;;;5.97;2.20;;;;;;;-1.97;68.61;95725.06;4965589;28;20058;-54
2021/01/27 05:58:30;;;;;;;3.25;1.80;;;;;;;-1.88;68.50;95720.09;4970882;28;20054;-54
2021/01/27 06:01:15;;;;;;;3.45;1.95;;;;;;;-1.59;67.98;95712.50;4972003;28;20047;-53
2021/01/27 06:03:53;;;;;;;5.63;2.10;;;;;;;-2.03;69.55;95707.53;4972752;28;20133;-50
2021/01/27 06:06:19;;;;;;;12.45;6.85;;;;;;;-2.08;70.10;95718.13;4965845;28;20059;-49
2021/01/27 06:08:54;;;;;;;10.60;5.18;;;;;;;-1.91;68.94;95705.47;4970901;28;20386;-50
2021/01/27 06:11:21;;;;;;;13.02;7.25;;;;;;;-1.62;69.22;95720.97;4970326;28;20129;-50
2021/01/27 06:13:49;;;;;;;11.23;6.60;;;;;;;-1.31;67.29;95716.56;4969538;28;20069;-51
2021/01/27 06:16:32;;;;;;;8.73;5.47;;;;;;;-1.89;69.65;95708.66;4965036;28;20063;-51
2021/01/27 06:19:22;;;;;;;5.25;2.85;;;;;;;-2.09;70.72;95708.56;4963021;28;20059;-50
2021/01/27 06:21:54;;;;;;;5.15;2.30;;;;;;;-2.14;70.65;95711.22;4970266;28;20110;-51
2021/01/27 06:24:34;;;;;;;4.97;1.93;;;;;;;-2.21;70.32;95710.63;4972991;28;20073;-54
2021/01/27 06:27:46;;;;;;;5.45;1.90;;;;;;;-2.15;70.70;95710.38;4972591;28;20059;-48
2021/01/27 06:30:19;;;;;;;3.67;1.80;;;;;;;-2.17;70.54;95720.47;4970998;28;20058;-52
2021/01/27 06:33:16;;;;;;;5.03;1.60;;;;;;;-1.95;69.86;95709.72;4972564;28;20047;-54
2021/01/27 06:36:05;;;;;;;4.07;1.80;;;;;;;-1.88;68.93;95714.78;4970636;28;20050;-52
2021/01/27 06:39:01;;;;;;;5.47;1.90;;;;;;;-1.70;67.78;95706.34;4983289;23;20409;-52
2021/01/27 06:41:28;;;;;;;5.30;2.10;;;;;;;-1.30;66.58;95702.25;4969820;28;20061;-47
2021/01/27 06:44:16;;;;;;;3.65;1.80;;;;;;;-1.06;65.46;95704.41;4971762;28;20105;-44
2021/01/27 06:47:02;;;;;;;7.47;2.33;;;;;;;-1.41;65.82;95708.56;4972187;28;20059;-48
2021/01/27 06:49:57;;;;;;;4.70;2.05;;;;;;;-1.63;67.56;95700.00;4961771;28;20126;-47
2021/01/27 06:52:32;;;;;;;5.47;1.80;;;;;;;-1.74;67.40;95697.31;4965214;28;20062;-45
2021/01/27 06:55:18;;;;;;;3.80;1.65;;;;;;;-1.80;66.81;95695.72;4969541;28;20081;-45
2021/01/27 06:58:15;;;;;;;4.63;1.60;;;;;;;-1.76;66.80;95699.44;4961366;28;20102;-43
2021/01/27 07:01:06;;;;;;;5.05;2.40;;;;;;;-1.77;66.37;95691.75;4963931;28;20142;-45
2021/01/27 07:03:33;;;;;;;16.83;8.88;;;;;;;-1.81;66.13;95690.69;4976179;28;20587;-51
2021/01/27 07:06:35;;;;;;;12.65;6.57;;;;;;;-1.86;67.49;95696.75;4974610;28;20101;-49
2021/01/27 07:09:54;;;;;;;6.85;3.47;;;;;;;-1.78;66.96;95688.31;4965887;28;20529;-48
2021/01/27 07:12:20;;;;;;;6.18;3.03;;;;;;;-1.65;67.34;95692.31;4968589;28;20055;-48
2021/01/27 07:15:12;;;;;;;8.40;3.33;;;;;;;-1.19;67.53;95689.78;4975402;28;20050;-43
2021/01/27 07:17:44;;;;;;;4.00;1.90;;;;;;;-1.29;65.30;95693.22;4966258;28;20054;-46
2021/01/27 07:20:21;;;;;;;4.72;2.20;;;;;;;-1.38;67.07;95689.47;4964465;28;20126;-48
2021/01/27 07:22:58;;;;;;;4.25;2.17;;;;;;;-1.31;66.82;95682.03;4966510;28;20079;-46
2021/01/27 07:25:40;;;;;;;5.32;2.20;;;;;;;-1.26;66.12;95676.75;4975579;28;20420;-44
2021/01/27 07:28:13;;;;;;;5.85;3.10;;;;;;;-1.43;66.71;95676.19;4969313;28;20138;-52
2021/01/27 07:30:53;;;;;;;;;;;;;;;-1.51;66.33;95677.50;4962302;28;20039;-47
2021/01/27 07:33:29;;;;;;;5.65;2.20;;;;;;;-1.73;67.26;95676.91;4973779;28;20025;-43
2021/01/27 07:36:15;;;;;;;5.93;2.30;;;;;;;-1.54;67.33;95664.75;4974391;28;20133;-43
2021/01/27 07:38:46;;;;;;;6.05;2.70;;;;;;;-1.70;67.44;95663.91;4958456;28;20078;-43
2021/01/27 07:41:19;;;;;;;4.10;2.30;;;;;;;-1.74;67.22;95660.19;4972519;28;20079;-46
2021/01/27 07:44:01;;;;;;;;;;;;;;;-1.77;66.69;95652.75;4973816;28;20512;-44
2021/01/27 07:46:40;;;;;;;5.25;1.98;;;;;;;-1.65;67.27;95652.53;4970839;28;19922;-46
2021/01/27 07:49:06;;;;;;;5.78;2.00;;;;;;;-1.54;66.23;95651.50;4972934;28;20117;-49
2021/01/27 07:51:43;;;;;;;4.63;2.17;;;;;;;-1.61;66.22;95650.16;4965749;28;20097;-43
2021/01/27 07:54:19;;;;;;;7.22;3.38;;;;;;;-1.42;65.50;95653.91;4974970;28;20063;-48
2021/01/27 07:57:04;;;;;;;8.10;3.97;;;;;;;-1.55;65.45;95657.06;4974643;28;20054;-49
2021/01/27 07:59:43;;;;;;;6.95;3.15;;;;;;;-1.51;65.44;95648.31;4958331;28;20051;-47
2021/01/27 08:02:29;;;;;;;5.80;3.20;;;;;;;-1.50;65.72;95647.25;4955354;28;20472;-48
2021/01/27 08:05:03;;;;;;;6.35;4.13;;;;;;;-1.48;65.35;95669.00;4962066;28;20054;-49
2021/01/27 08:07:35;;;;;;;6.78;4.53;;;;;;;-0.91;64.93;95658.44;4974009;28;20058;-51
2021/01/27 08:10:07;;;;;;;6.38;3.08;;;;;;;-0.95;63.86;95648.34;4973819;28;20665;-50
2021/01/27 08:12:44;;;;;;;4.60;2.50;;;;;;;-1.15;64.61;95653.66;4968679;28;20527;-50
2021/01/27 08:15:41;;;;;;;9.50;2.83;;;;;;;-0.89;64.54;95657.13;4973193;28;20058;-43
2021/01/27 08:18:17;;;;;;;4.93;1.83;;;;;;;-0.91;63.87;95653.97;4965822;28;20578;-46
2021/01/27 08:20:46;;;;;;;4.03;2.00;;;;;;;-1.21;64.62;95641.44;4969620;28;20058;-49
2021/01/27 08:23:21;;;;;;;3.53;1.70;;;;;;;-1.07;63.62;95649.69;4970606;28;20558;-48
2021/01/27 08:25:49;;;;;;;4.00;1.70;;;;;;;-1.01;63.79;95644.13;4964551;28;20472;-44
2021/01/27 08:28:37;;;;;;;3.28;1.65;;;;;;;-1.02;63.78;95642.53;4967822;28;20055;-49
2021/01/27 08:31:10;;;;;;;4.82;2.05;;;;;;;-0.90;63.37;95647.56;4966066;28;20558;-51
2021/01/27 08:33:45;;;;;;;4.20;1.75;;;;;;;-0.81;63.20;95650.50;4959070;28;20055;-48
2021/01/27 08:36:16;;;;;;;2.85;1.88;;;;;;;-0.74;62.71;95659.78;4962812;28;20055;-48
2021/01/27 08:38:58;;;;;;;3.45;1.70;;;;;;;-0.40;62.72;95664.50;4966516;28;20105;-48
2021/01/27 08:42:02;;;;;;;6.30;2.53;;;;;;;0.12;60.73;95657.97;4973136;28;20043;-49
2021/01/27 08:44:34;;;;;;;4.32;1.80;;;;;;;-0.18;60.27;95655.44;4974166;28;20055;-50
2021/01/27 08:47:23;;;;;;;5.68;2.22;;;;;;;0.01;61.25;95653.78;4960074;28;20047;-51
2021/01/27 08:50:00;;;;;;;5.15;2.60;;;;;;;0.12;59.89;95652.66;4969173;28;20051;-50
2021/01/27 08:52:32;;;;;;;4.38;2.17;;;;;;;0.10;60.65;95657.47;4970856;28;20047;-47
2021/01/27 08:54:59;;;;;;;6.22;3.00;;;;;;;0.18;60.36;95634.81;4955814;28;20130;-49
2021/01/27 08:57:26;;;;;;;8.80;2.30;;;;;;;0.33;59.38;95669.34;4969102;28;20058;-50
2021/01/27 09:00:00;;;;;;;5.50;3.03;;;;;;;0.45;59.64;95674.31;4966013;28;20043;-50
2021/01/27 09:02:59;;;;;;;6.35;2.95;;;;;;;1.33;58.17;95664.69;4972595;28;20142;-48
2021/01/27 09:05:26;;;;;;;7.53;2.30;;;;;;;1.79;57.43;95664.28;4968623;28;20405;-46
2021/01/27 09:07:57;;;;;;;7.68;2.90;;;;;;;2.70;52.53;95664.25;4972562;28;20456;-52
2021/01/27 09:10:37;;;;;;;6.90;2.83;;;;;;;2.74;51.17;95654.56;4966611;28;20110;-48
2021/01/27 09:13:28;;;;;;;8.63;2.40;;;;;;;2.16;53.96;95644.13;4963941;28;20090;-47
2021/01/27 09:15:59;;;;;;;7.35;2.63;;;;;;;2.07;54.67;95649.28;4956062;28;20051;-51
2021/01/27 09:18:26;;;;;;;5.20;2.50;;;;;;;1.14;56.22;95669.91;4972662;28;20172;-51
2021/01/27 09:20:53;;;;;;;6.20;3.03;;;;;;;1.19;55.17;95663.75;4957342;28;20454;-48
2021/01/27 09:23:22;;;;;;;6.40;2.80;;;;;;;2.11;53.89;95660.97;4954373;28;20505;-48
2021/01/27 09:25:50;;;;;;;9.70;3.13;;;;;;;2.63;52.84;95661.13;4971309;28;20057;-49
2021/01/27 09:28:25;;;;;;;9.73;3.67;;;;;;;2.96;51.44;95654.78;4964617;28;20452;-48
2021/01/27 09:30:53;;;;;;;6.97;2.83;;;;;;;2.70;52.17;95657.03;4971688;28;20057;-52
2021/01/27 09:33:40;;;;;;;7.38;3.28;;;;;;;2.68;53.21;95650.38;4973614;28;20057;-49
2021/01/27 09:36:15;;;;;;;7.32;3.42;;;;;;;2.65;53.05;95653.63;4966459;28;20123;-50
2021/01/27 09:38:42;;;;;;;8.10;3.28;;;;;;;3.19;51.18;95652.31;4972214;28;20059;-48
2021/01/27 09:41:13;;;;;;;9.30;3.15;;;;;;;3.42;50.67;95662.09;4972754;28;20047;-46
2021/01/27 09:43:43;;;;;;;6.65;2.55;;;;;;;2.66;51.51;95649.88;4956679;28;20425;-48
2021/01/27 09:46:27;;;;;;;8.68;3.20;;;;;;;1.59;53.62;95655.41;4966677;28;20059;-47
2021/01/27 09:49:09;;;;;;;6.93;2.50;;;;;;;1.56;54.65;95645.28;4971575;28;20051;-46
2021/01/27 09:51:39;;;;;;;4.43;2.72;;;;;;;3.06;50.08;95648.50;4953584;28;20425;-47
2021/01/27 09:54:06;;;;;;;6.75;2.75;;;;;;;2.29;52.37;95656.75;4955571;28;20671;-52
2021/01/27 09:56:33;;;;;;;6.57;2.80;;;;;;;2.72;50.43;95651.38;4963632;28;20541;-51
2021/01/27 09:59:02;;;;;;;8.00;2.65;;;;;;;2.44;51.58;95623.72;4960368;28;20082;-48
2021/01/27 10:01:31;;;;;;;5.70;2.38;;;;;;;3.10;50.36;95649.50;4965064;28;20078;-52
2021/01/27 10:04:30;;;;;;;8.48;2.50;;;;;;;3.82;49.55;95627.66;4953735;28;20688;-50
2021/01/27 10:07:19;;;;;;;4.65;2.35;;;;;;;2.60;52.09;95624.31;4968399;28;20138;-49
2021/01/27 10:09:52;;;;;;;4.85;2.70;;;;;;;2.45;52.57;95623.44;4970881;28;20113;-51
2021/01/27 10:12:30;;;;;;;6.18;2.50;;;;;;;3.07;50.44;95626.03;4972573;28;20102;-51
2021/01/27 10:15:09;;;;;;;4.10;2.15;;;;;;;2.29;52.38;95630.06;4957329;28;20050;-52
2021/01/27 10:17:49;;;;;;;5.47;2.80;;;;;;;2.22;53.10;95629.63;4961382;28;20107;-52
2021/01/27 10:20:23;;;;;;;8.45;4.43;;;;;;;2.06;52.97;95635.16;4962001;28;20065;-50
2021/01/27 10:23:01;;;;;;;7.18;3.80;;;;;;;1.87;53.61;95623.63;4967143;28;20050;-49
2021/01/27 10:25:38;;;;;;;6.70;2.72;;;;;;;1.69;52.16;95624.34;4959654;28;20081;-48
2021/01/27 10:28:11;;;;;;;6.80;2.28;;;;;;;1.72;53.88;95634.47;4965201;28;20070;-49
2021/01/27 10:30:56;;;;;;;8.98;2.67;;;;;;;1.81;53.54;95630.09;4964040;28;20319;-50
2021/01/27 10:33:52;;;;;;;5.45;2.42;;;;;;;1.39;53.57;95620.91;4972527;28;20055;-50
2021/01/27 10:36:34;;;;;;;5.45;1.95;;;;;;;1.76;51.39;95630.97;4953807;28;20138;-48
2021/01/27 10:39:15;;;;;;;2.97;1.60;;;;;;;2.14;49.31;95630.25;4960278;28;20059;-50
2021/01/27 10:41:47;;;;;;;3.33;1.45;;;;;;;2.17;50.13;95629.69;4959796;28;20050;-49
2021/01/27 10:44:37;;;;;;;5.70;2.00;;;;;;;2.22;52.65;95624.28;4956174;28;20054;-49
2021/01/27 10:47:10;;;;;;;4.50;2.05;;;;;;;2.75;50.64;95621.44;4963534;28;20472;-50
2021/01/27 10:49:42;;;;;;;15.88;9.77;;;;;;;2.32;51.72;95608.16;4970198;28;20105;-48
2021/01/27 10:52:24;;;;;;;4.68;1.80;;;;;;;2.50;51.16;95619.91;4968120;28;20070;-49
2021/01/27 10:54:58;;;;;;;3.47;1.80;;;;;;;2.78;50.33;95615.50;4963054;28;20519;-49
2021/01/27 10:57:24;;;;;;;4.10;1.92;;;;;;;2.09;52.28;95610.56;4964876;28;20055;-52
2021/01/27 10:59:52;;;;;;;4.30;1.63;;;;;;;1.96;51.61;95615.81;4952469;28;20102;-51
2021/01/27 11:02:19;;;;;;;4.38;1.55;;;;;;;2.03;52.45;95617.03;4955260;28;20065;-47
2021/01/27 11:04:46;;;;;;;1.73;1.20;;;;;;;2.07;50.91;95614.59;4961896;28;20051;-50
2021/01/27 11:07:13;;;;;;;2.80;1.42;;;;;;;2.28;51.23;95609.81;4959392;28;20051;-49
2021/01/27 11:09:40;;;;;;;3.85;1.88;;;;;;;2.53;50.60;95611.31;4952473;28;20054;-50
2021/01/27 11:12:06;;;;;;;4.70;1.88;;;;;;;2.32;50.88;95616.94;4952968;28;20055;-49
2021/01/27 11:14:35;;;;;;;2.42;1.50;;;;;;;2.73;48.78;95610.22;4956160;28;20492;-48
2021/01/27 11:17:02;;;;;;;2.63;1.30;;;;;;;1.91;48.74;95608.63;4967500;28;20126;-52
2021/01/27 11:19:29;;;;;;;3.53;1.40;;;;;;;2.10;48.68;95614.81;4967426;28;20051;-55
2021/01/27 11:21:55;;;;;;;4.63;1.55;;;;;;;2.33;49.07;95609.72;4964096;28;20138;-43
2021/01/27 11:24:21;;;;;;;2.10;1.33;;;;;;;1.78;47.70;95603.97;4970781;28;20142;-44
2021/01/27 11:26:48;;;;;;;3.63;1.40;;;;;;;1.95;50.29;95604.34;4967393;28;20051;-47
2021/01/27 11:29:14;;;;;;;2.65;1.50;;;;;;;1.68;49.14;95599.56;4958596;28;20454;-46
2021/01/27 11:31:41;;;;;;;6.72;1.83;;;;;;;2.00;49.52;95609.59;4956281;28;20051;-44
2021/01/27 11:34:07;;;;;;;4.40;1.60;;;;;;;2.00;49.44;95601.59;4971989;28;20057;-42
2021/01/27 11:36:34;;;;;;;6.45;2.08;;;;;;;1.49;50.42;95607.47;4970602;28;20125;-43
2021/01/27 11:39:00;;;;;;;5.20;2.00;;;;;;;1.03;51.75;95588.47;4974819;28;20158;-46
2021/01/27 11:41:27;;;;;;;4.13;2.10;;;;;;;0.81;53.12;95596.91;4975072;28;20461;-42
2021/01/27 11:43:54;;;;;;;4.57;1.92;;;;;;;1.18;53.23;95585.69;4973710;28;20051;-43
2021/01/27 11:46:20;;;;;;;4.60;1.95;;;;;;;1.78;52.80;95582.66;4968273;28;20079;-44
2021/01/27 11:48:47;;;;;;;4.35;1.70;;;;;;;1.14;53.07;95589.97;4969553;28;20046;-45
2021/01/27 11:51:15;;;;;;;3.33;1.70;;;;;;;1.17;53.64;95584.88;4963842;28;20057;-45
2021/01/27 11:53:42;;;;;;;4.57;1.83;;;;;;;1.19;53.74;95575.81;4960877;28;20134;-47
2021/01/27 11:56:10;;;;;;;5.28;1.80;;;;;;;1.10;54.63;95581.72;4974958;28;20252;-49
2021/01/27 11:58:41;;;;;;;4.43;1.50;;;;;;;1.19;54.18;95570.47;4968685;28;20073;-44
2021/01/27 12:01:08;;;;;;;5.50;1.60;;;;;;;0.99;55.02;95577.59;4962199;28;20055;-46
2021/01/27 12:03:34;;;;;;;3.40;1.77;;;;;;;0.72;55.91;95572.75;4967623;28;20517;-43
2021/01/27 12:06:02;;;;;;;6.00;2.00;;;;;;;0.86;55.79;95572.91;4973817;28;20106;-48
2021/01/27 12:08:28;;;;;;;27.52;7.00;;;;;;;0.79;56.10;95573.22;4969102;28;20081;-44
2021/01/27 12:10:55;;;;;;;12.60;5.18;;;;;;;0.67;55.89;95570.91;4972855;28;20497;-44
2021/01/27 12:13:21;;;;;;;4.72;1.88;;;;;;;0.87;55.89;95571.81;4966602;28;20106;-44